createdAt,value
2017-05-18T00:02:03.382Z,31.80
2017-05-18T00:04:30.702Z,31.90
2017-05-18T00:06:58.004Z,32.00
2017-05-18T00:09:25.343Z,32.00
2017-05-18T00:11:52.665Z,32.00
2017-05-18T00:14:19.989Z,32.30
2017-05-18T00:16:47.256Z,32.10
2017-05-18T00:19:14.618Z,32.40
2017-05-18T00:21:41.971Z,32.90
2017-05-18T00:24:09.389Z,32.10
2017-05-18T00:26:36.733Z,32.20
2017-05-18T00:29:04.106Z,32.80
2017-05-18T00:31:31.422Z,32.60
2017-05-18T00:33:58.750Z,32.80
2017-05-18T00:36:26.113Z,32.70
2017-05-18T00:38:53.445Z,32.70
2017-05-18T00:41:20.784Z,32.90
2017-05-18T00:43:48.107Z,32.90
2017-05-18T00:46:15.446Z,33.00
2017-05-18T00:48:42.773Z,33.60
2017-05-18T00:51:10.190Z,33.30
2017-05-18T00:53:37.533Z,33.50
2017-05-18T00:56:04.947Z,33.30
2017-05-18T00:58:32.341Z,33.30
2017-05-18T01:00:59.686Z,34.10
2017-05-18T01:03:26.994Z,33.40
2017-05-18T01:05:54.338Z,33.70
2017-05-18T01:08:21.667Z,33.40
2017-05-18T01:10:48.989Z,33.40
2017-05-18T01:13:17.822Z,33.40
2017-05-18T01:15:45.174Z,33.70
2017-05-18T01:18:12.546Z,33.50
2017-05-18T01:20:39.875Z,33.30
2017-05-18T01:23:07.250Z,33.40
2017-05-18T01:25:35.061Z,33.20
2017-05-18T01:28:02.365Z,33.20
2017-05-18T01:30:29.704Z,33.10
2017-05-18T01:32:57.068Z,33.20
2017-05-18T01:35:24.450Z,33.10
2017-05-18T01:37:51.831Z,32.90
2017-05-18T01:40:19.554Z,33.10
2017-05-18T01:42:46.930Z,32.90
2017-05-18T01:45:14.316Z,32.90
2017-05-18T01:47:41.670Z,32.90
2017-05-18T01:50:09.047Z,33.00
2017-05-18T01:52:38.094Z,32.80
2017-05-18T01:55:05.461Z,33.00
2017-05-18T01:57:32.783Z,33.00
2017-05-18T02:00:00.110Z,32.90
2017-05-18T02:02:27.438Z,32.90
2017-05-18T02:04:54.764Z,32.90
2017-05-18T02:07:22.130Z,33.10
2017-05-18T02:09:49.482Z,33.30
2017-05-18T02:12:16.744Z,33.30
2017-05-18T02:14:44.082Z,33.30
2017-05-18T02:17:11.475Z,33.20
2017-05-18T02:19:38.832Z,33.30
2017-05-18T02:22:06.335Z,33.20
2017-05-18T02:24:33.697Z,33.40
2017-05-18T02:27:01.093Z,33.60
2017-05-18T02:29:28.410Z,33.40
2017-05-18T02:31:55.737Z,33.60
2017-05-18T02:34:23.064Z,33.70
2017-05-18T02:36:50.411Z,33.60
2017-05-18T02:39:17.753Z,34.10
2017-05-18T02:41:45.114Z,33.70
2017-05-18T02:44:12.474Z,34.10
2017-05-18T02:46:39.811Z,34.30
2017-05-18T02:49:07.145Z,34.50
2017-05-18T02:51:35.006Z,34.50
2017-05-18T02:54:02.361Z,34.60
2017-05-18T02:56:29.709Z,35.10
2017-05-18T02:58:57.057Z,35.30
2017-05-18T03:01:24.390Z,35.30
2017-05-18T03:03:51.711Z,35.70
2017-05-18T03:06:19.054Z,35.70
2017-05-18T03:08:46.314Z,35.60
2017-05-18T03:11:14.069Z,36.30
2017-05-18T03:13:41.441Z,35.60
2017-05-18T03:16:08.998Z,35.50
2017-05-18T03:18:36.365Z,36.00
2017-05-18T03:21:03.729Z,36.00
2017-05-18T03:23:31.474Z,36.00
2017-05-18T03:25:58.837Z,36.10
2017-05-18T03:28:26.197Z,36.20
2017-05-18T03:30:53.502Z,36.10
2017-05-18T03:33:20.817Z,35.90
2017-05-18T03:35:48.177Z,36.20
2017-05-18T03:38:15.529Z,36.10
2017-05-18T03:40:42.871Z,36.50
2017-05-18T03:43:10.245Z,36.50
2017-05-18T03:45:37.606Z,36.50
2017-05-18T03:48:04.975Z,36.30
2017-05-18T03:50:32.304Z,36.30
2017-05-18T03:52:59.680Z,36.40
2017-05-18T03:55:27.024Z,37.20
2017-05-18T03:57:54.406Z,36.70
2017-05-18T04:00:21.757Z,36.60
2017-05-18T04:02:49.117Z,37.20
2017-05-18T04:05:17.098Z,37.40
2017-05-18T04:07:44.787Z,37.30
2017-05-18T04:10:12.158Z,37.00
2017-05-18T04:12:39.474Z,37.80
2017-05-18T04:15:06.822Z,37.50
2017-05-18T04:17:34.187Z,38.40
2017-05-18T04:20:01.933Z,38.10
2017-05-18T04:22:29.260Z,38.30
2017-05-18T04:24:56.583Z,38.90
2017-05-18T04:27:23.899Z,38.00
2017-05-18T04:29:51.242Z,38.00
2017-05-18T04:32:18.613Z,38.10
2017-05-18T04:34:45.935Z,37.80
2017-05-18T04:37:13.295Z,38.60
2017-05-18T04:39:43.563Z,38.20
2017-05-18T04:42:10.915Z,38.40
2017-05-18T04:44:38.258Z,39.30
2017-05-18T04:47:05.663Z,39.30
2017-05-18T04:49:32.986Z,38.90
2017-05-18T04:52:00.342Z,39.20
2017-05-18T04:54:27.674Z,39.20
2017-05-18T04:56:55.017Z,39.50
2017-05-18T04:59:22.375Z,39.00
2017-05-18T05:01:49.710Z,39.50
2017-05-18T05:04:17.547Z,39.80
2017-05-18T05:06:45.013Z,39.50
2017-05-18T05:09:12.366Z,39.50
2017-05-18T05:11:40.270Z,38.60
2017-05-18T05:14:07.621Z,38.30
2017-05-18T05:16:34.958Z,37.60
2017-05-18T05:19:02.295Z,37.60
2017-05-18T05:21:29.653Z,37.80
2017-05-18T05:23:57.645Z,37.80
2017-05-18T05:26:25.061Z,37.10
2017-05-18T05:28:52.422Z,36.50
2017-05-18T05:31:19.806Z,37.30
2017-05-18T05:33:47.146Z,36.50
2017-05-18T05:36:14.465Z,36.40
2017-05-18T05:38:41.832Z,36.30
2017-05-18T05:41:09.214Z,37.30
2017-05-18T05:43:36.597Z,37.30
2017-05-18T05:46:04.117Z,38.20
2017-05-18T05:48:31.912Z,37.30
2017-05-18T05:50:59.234Z,37.50
2017-05-18T05:53:26.568Z,38.50
2017-05-18T05:55:53.933Z,39.30
2017-05-18T05:58:21.270Z,39.50
2017-05-18T06:00:48.532Z,40.30
2017-05-18T06:03:15.877Z,40.60
2017-05-18T06:05:43.213Z,40.80
2017-05-18T06:08:10.549Z,41.50
2017-05-18T06:10:37.878Z,41.60
2017-05-18T06:13:05.470Z,42.00
2017-05-18T06:15:32.921Z,41.80
2017-05-18T06:18:00.286Z,42.10
2017-05-18T06:20:27.565Z,42.20
2017-05-18T06:22:54.959Z,41.20
2017-05-18T06:25:22.281Z,41.20
2017-05-18T06:27:49.738Z,41.50
2017-05-18T06:30:17.249Z,41.50
2017-05-18T06:32:44.625Z,41.90
2017-05-18T06:35:12.121Z,41.60
2017-05-18T06:37:39.454Z,41.40
2017-05-18T06:40:06.885Z,42.10
2017-05-18T06:42:34.235Z,41.50
2017-05-18T06:45:01.610Z,41.90
2017-05-18T06:47:28.865Z,42.90
2017-05-18T06:49:56.229Z,43.60
2017-05-18T06:52:23.572Z,44.20
2017-05-18T06:54:50.882Z,46.90
2017-05-18T06:57:18.230Z,48.80
2017-05-18T06:59:45.566Z,48.90
2017-05-18T07:02:12.993Z,49.90
2017-05-18T07:04:40.358Z,50.80
2017-05-18T07:07:07.717Z,52.50
2017-05-18T07:09:35.073Z,52.50
2017-05-18T07:12:03.226Z,51.80
2017-05-18T07:14:30.541Z,51.30
2017-05-18T07:16:57.883Z,50.80
2017-05-18T07:19:25.250Z,51.30
2017-05-18T07:21:52.581Z,50.00
2017-05-18T07:24:19.938Z,50.20
2017-05-18T07:26:47.249Z,49.30
2017-05-18T07:29:14.607Z,50.70
2017-05-18T07:31:41.893Z,50.10
2017-05-18T07:34:09.311Z,49.10
2017-05-18T07:36:36.634Z,50.80
2017-05-18T07:39:03.957Z,49.30
2017-05-18T07:41:31.281Z,49.50
2017-05-18T07:43:58.623Z,50.00
2017-05-18T07:46:25.973Z,50.50
2017-05-18T07:48:53.349Z,50.50
2017-05-18T07:51:20.714Z,50.50
2017-05-18T07:53:48.064Z,50.30
2017-05-18T07:56:15.429Z,49.80
2017-05-18T07:58:42.746Z,49.20
2017-05-18T08:01:10.143Z,50.10
2017-05-18T08:03:37.485Z,50.70
2017-05-18T08:06:04.856Z,50.60
2017-05-18T08:08:32.264Z,49.90
2017-05-18T08:10:59.926Z,50.40
2017-05-18T08:13:27.248Z,50.10
2017-05-18T08:15:54.573Z,51.90
2017-05-18T08:18:21.946Z,53.40
2017-05-18T08:20:49.284Z,55.00
2017-05-18T08:23:16.637Z,55.30
2017-05-18T08:25:44.351Z,55.00
2017-05-18T08:28:11.722Z,55.90
2017-05-18T08:30:39.069Z,55.50
2017-05-18T08:33:06.468Z,54.10
2017-05-18T08:35:38.713Z,52.60
2017-05-18T08:38:06.267Z,53.90
2017-05-18T08:40:33.666Z,53.80
2017-05-18T08:43:01.021Z,52.80
2017-05-18T08:45:28.377Z,52.10
2017-05-18T08:47:56.779Z,53.10
2017-05-18T08:50:24.078Z,51.40
2017-05-18T08:52:51.426Z,51.70
2017-05-18T08:55:18.794Z,51.50
2017-05-18T08:57:46.136Z,52.20
2017-05-18T09:00:17.836Z,50.30
2017-05-18T09:02:45.234Z,51.50
2017-05-18T09:05:12.589Z,50.40
2017-05-18T09:07:39.967Z,49.30
2017-05-18T09:10:07.314Z,47.90
2017-05-18T09:12:39.662Z,48.30
2017-05-18T09:15:07.071Z,49.50
2017-05-18T09:17:34.401Z,48.00
2017-05-18T09:20:01.741Z,49.50
2017-05-18T09:22:29.082Z,48.20
2017-05-18T09:24:56.441Z,48.00
2017-05-18T09:27:23.797Z,47.30
2017-05-18T09:29:56.576Z,47.60
2017-05-18T09:32:24.097Z,47.20
2017-05-18T09:34:51.439Z,45.90
2017-05-18T09:37:18.774Z,46.10
2017-05-18T09:39:46.113Z,45.40
2017-05-18T09:42:13.478Z,46.80
2017-05-18T09:44:45.469Z,44.80
2017-05-18T09:47:12.890Z,43.40
2017-05-18T09:49:40.233Z,43.10
2017-05-18T09:52:07.560Z,44.10
2017-05-18T09:54:34.882Z,43.60
2017-05-18T09:57:02.204Z,42.90
2017-05-18T09:59:29.559Z,41.60
2017-05-18T10:02:00.724Z,41.40
2017-05-18T10:04:28.074Z,40.80
2017-05-18T10:06:55.401Z,40.20
2017-05-18T10:09:22.723Z,40.60
2017-05-18T10:11:50.041Z,41.30
2017-05-18T10:14:17.391Z,42.50
2017-05-18T10:16:49.816Z,44.00
2017-05-18T10:19:17.182Z,45.00
2017-05-18T10:21:44.513Z,45.20
2017-05-18T10:24:11.748Z,46.00
2017-05-18T10:26:39.106Z,47.90
2017-05-18T10:29:06.508Z,48.40
2017-05-18T10:31:37.149Z,49.60
2017-05-18T10:34:04.535Z,50.50
2017-05-18T10:36:31.834Z,52.10
2017-05-18T10:38:59.173Z,53.00
2017-05-18T10:41:26.469Z,49.80
2017-05-18T10:43:53.830Z,50.50
2017-05-18T10:46:25.470Z,51.50
2017-05-18T10:48:52.924Z,51.80
2017-05-18T10:51:20.225Z,49.50
2017-05-18T10:53:47.590Z,50.10
2017-05-18T10:56:14.954Z,49.60
2017-05-18T10:58:42.289Z,49.50
2017-05-18T11:01:12.725Z,48.80
2017-05-18T11:03:40.082Z,48.20
2017-05-18T11:06:07.470Z,49.30
2017-05-18T11:08:34.862Z,48.40
2017-05-18T11:11:02.231Z,48.60
2017-05-18T11:13:31.699Z,48.50
2017-05-18T11:16:01.717Z,48.80
2017-05-18T11:18:29.047Z,49.10
2017-05-18T11:20:56.402Z,49.10
2017-05-18T11:23:23.753Z,50.20
2017-05-18T11:25:51.100Z,49.80
2017-05-18T11:28:18.438Z,50.00
2017-05-18T11:30:45.815Z,49.90
2017-05-18T11:33:13.143Z,50.30
2017-05-18T11:35:40.505Z,50.60
2017-05-18T11:38:07.889Z,51.10
2017-05-18T11:40:35.229Z,52.30
2017-05-18T11:43:02.578Z,54.60
2017-05-18T11:45:29.902Z,56.00
2017-05-18T11:47:57.222Z,56.50
2017-05-18T11:50:24.597Z,58.60
2017-05-18T11:52:51.941Z,59.60
2017-05-18T11:55:19.262Z,63.30
2017-05-18T11:57:46.577Z,62.30
2017-05-18T12:00:13.914Z,64.20
2017-05-18T12:02:41.313Z,63.30
2017-05-18T12:05:08.654Z,63.90
2017-05-18T12:07:36.007Z,65.10
2017-05-18T12:10:03.341Z,66.40
2017-05-18T12:12:30.661Z,66.80
2017-05-18T12:14:58.021Z,66.10
2017-05-18T12:17:25.389Z,65.40
2017-05-18T12:19:52.718Z,64.90
2017-05-18T12:22:20.077Z,66.50
2017-05-18T12:24:47.370Z,67.40
2017-05-18T12:27:14.770Z,67.20
2017-05-18T12:29:42.189Z,66.50
2017-05-18T12:32:09.555Z,66.50
2017-05-18T12:34:36.911Z,68.00
2017-05-18T12:37:04.342Z,66.70
2017-05-18T12:39:31.713Z,68.50
2017-05-18T12:41:59.119Z,66.50
2017-05-18T12:44:26.494Z,66.70
2017-05-18T12:46:53.873Z,65.20
2017-05-18T12:49:21.202Z,64.00
2017-05-18T12:51:48.596Z,64.70
2017-05-18T12:54:15.925Z,64.30
2017-05-18T12:56:43.281Z,64.60
2017-05-18T12:59:10.669Z,64.00
2017-05-18T13:01:41.979Z,64.50
2017-05-18T13:04:09.374Z,63.20
2017-05-18T13:06:36.777Z,64.90
2017-05-18T13:09:04.170Z,64.70
2017-05-18T13:11:31.514Z,64.40
2017-05-18T13:13:58.892Z,65.00
2017-05-18T13:16:26.249Z,62.80
2017-05-18T13:18:53.606Z,64.10
2017-05-18T13:21:20.977Z,65.20
2017-05-18T13:23:48.311Z,65.80
2017-05-18T13:26:15.642Z,66.80
2017-05-18T13:28:43.025Z,66.90
2017-05-18T13:31:10.301Z,63.80
2017-05-18T13:33:37.678Z,65.40
2017-05-18T13:36:05.030Z,66.80
2017-05-18T13:38:33.342Z,65.50
2017-05-18T13:41:00.897Z,66.30
2017-05-18T13:43:28.271Z,66.80
2017-05-18T13:45:55.605Z,65.90
2017-05-18T13:48:22.964Z,65.70
2017-05-18T13:50:50.302Z,63.50
2017-05-18T13:53:18.549Z,64.80
2017-05-18T13:55:45.908Z,63.50
2017-05-18T13:58:13.280Z,64.70
2017-05-18T14:00:40.754Z,64.50
2017-05-18T14:03:08.157Z,65.00
2017-05-18T14:05:35.513Z,64.00
2017-05-18T14:08:02.855Z,63.50
2017-05-18T14:10:30.205Z,62.00
2017-05-18T14:12:57.526Z,63.80
2017-05-18T14:15:24.853Z,62.50
2017-05-18T14:17:52.274Z,62.30
2017-05-18T14:20:20.570Z,63.10
2017-05-18T14:22:47.969Z,62.80
2017-05-18T14:25:16.405Z,62.60
2017-05-18T14:27:43.870Z,63.20
2017-05-18T14:30:11.249Z,63.10
2017-05-18T14:32:39.113Z,62.80
2017-05-18T14:35:06.446Z,63.40
2017-05-18T14:37:33.870Z,63.70
2017-05-18T14:40:02.990Z,64.40
2017-05-18T14:42:30.511Z,63.30
2017-05-18T14:44:58.111Z,62.80
2017-05-18T14:47:25.377Z,62.80
2017-05-18T14:49:52.780Z,63.20
2017-05-18T14:52:20.121Z,61.10
2017-05-18T14:54:47.661Z,62.20
2017-05-18T14:57:15.314Z,62.30
2017-05-18T14:59:42.734Z,63.50
2017-05-18T15:02:10.258Z,62.50
2017-05-18T15:04:37.769Z,61.90
2017-05-18T15:07:05.138Z,62.60
2017-05-18T15:09:32.724Z,62.40
2017-05-18T15:12:00.022Z,62.60
2017-05-18T15:14:27.347Z,60.20
2017-05-18T15:16:54.786Z,61.50
2017-05-18T15:19:22.162Z,61.60
2017-05-18T15:21:49.625Z,62.40
2017-05-18T15:24:16.996Z,60.90
2017-05-18T15:26:49.558Z,59.40
2017-05-18T15:29:17.207Z,59.50
2017-05-18T15:31:45.321Z,60.20
2017-05-18T15:34:12.914Z,57.90
2017-05-18T15:36:40.314Z,58.90
2017-05-18T15:39:11.377Z,58.90
2017-05-18T15:41:38.749Z,59.60
2017-05-18T15:44:06.086Z,58.50
2017-05-18T15:46:33.653Z,58.60
2017-05-18T15:49:01.118Z,60.10
2017-05-18T15:51:28.465Z,59.80
2017-05-18T15:53:58.761Z,60.20
2017-05-18T15:56:26.205Z,59.20
2017-05-18T15:58:53.575Z,59.60
2017-05-18T16:01:20.932Z,60.10
2017-05-18T16:03:48.274Z,59.20
2017-05-18T16:06:15.658Z,60.40
2017-05-18T16:08:42.997Z,60.20
2017-05-18T16:11:13.106Z,60.50
2017-05-18T16:13:40.438Z,61.50
2017-05-18T16:16:07.885Z,62.10
2017-05-18T16:18:35.622Z,60.70
2017-05-18T16:21:03.193Z,60.10
2017-05-18T16:23:30.541Z,61.40
2017-05-18T16:25:57.890Z,60.60
2017-05-18T16:28:27.334Z,60.00
2017-05-18T16:30:54.650Z,61.50
2017-05-18T16:33:22.354Z,61.80
2017-05-18T16:35:49.786Z,61.30
2017-05-18T16:38:17.204Z,61.60
2017-05-18T16:40:49.709Z,61.60
2017-05-18T16:43:17.095Z,61.20
2017-05-18T16:45:44.666Z,62.30
2017-05-18T16:48:11.991Z,62.10
2017-05-18T16:50:39.354Z,61.80
2017-05-18T16:53:06.735Z,62.40
2017-05-18T16:55:34.234Z,61.70
2017-05-18T16:58:01.640Z,60.70
2017-05-18T17:00:29.005Z,61.40
2017-05-18T17:02:56.342Z,61.00
2017-05-18T17:05:23.721Z,61.70
2017-05-18T17:07:51.073Z,61.00
2017-05-18T17:10:18.394Z,60.90
2017-05-18T17:12:46.060Z,62.00
2017-05-18T17:15:13.397Z,62.40
2017-05-18T17:17:40.766Z,62.40
2017-05-18T17:20:08.157Z,62.90
2017-05-18T17:22:35.534Z,62.40
2017-05-18T17:25:03.076Z,60.30
2017-05-18T17:27:30.515Z,60.20
2017-05-18T17:29:57.763Z,60.60
2017-05-18T17:32:25.106Z,61.00
2017-05-18T17:34:52.510Z,61.40
2017-05-18T17:37:19.866Z,60.20
2017-05-18T17:39:47.304Z,60.40
2017-05-18T17:42:14.773Z,59.80
2017-05-18T17:44:42.198Z,59.50
2017-05-18T17:47:09.554Z,61.10
2017-05-18T17:49:36.918Z,62.50
2017-05-18T17:52:05.043Z,61.30
2017-05-18T17:54:32.448Z,61.40
2017-05-18T17:56:59.794Z,61.10
2017-05-18T17:59:27.248Z,59.40
2017-05-18T18:01:54.721Z,60.50
2017-05-18T18:04:22.119Z,61.80
2017-05-18T18:06:49.468Z,59.60
2017-05-18T18:09:16.893Z,60.50
2017-05-18T18:11:44.452Z,60.50
2017-05-18T18:14:11.923Z,61.00
2017-05-18T18:16:39.310Z,61.70
2017-05-18T18:19:06.641Z,61.30
2017-05-18T18:21:35.137Z,61.60
2017-05-18T18:24:02.465Z,61.70
2017-05-18T18:26:29.878Z,62.20
2017-05-18T18:29:02.446Z,61.80
2017-05-18T18:31:29.863Z,62.20
2017-05-18T18:33:57.194Z,62.10
2017-05-18T18:36:24.517Z,60.20
2017-05-18T18:38:51.877Z,61.90
2017-05-18T18:41:19.223Z,62.00
2017-05-18T18:43:46.580Z,62.70
2017-05-18T18:46:16.865Z,62.10
2017-05-18T18:48:44.242Z,62.80
2017-05-18T18:51:11.578Z,61.10
2017-05-18T18:53:38.909Z,62.00
2017-05-18T18:56:06.239Z,62.00
2017-05-18T18:58:33.705Z,62.60
2017-05-18T19:01:01.110Z,62.00
2017-05-18T19:03:28.498Z,61.30
2017-05-18T19:05:55.918Z,60.90
2017-05-18T19:08:23.286Z,61.20
2017-05-18T19:10:50.534Z,60.60
2017-05-18T19:13:17.955Z,61.60
2017-05-18T19:15:45.259Z,61.10
2017-05-18T19:18:12.667Z,61.90
2017-05-18T19:20:40.858Z,61.10
2017-05-18T19:23:08.371Z,61.30
2017-05-18T19:25:35.715Z,62.00
2017-05-18T19:28:03.535Z,62.00
2017-05-18T19:30:30.782Z,62.20
2017-05-18T19:32:58.138Z,61.90
2017-05-18T19:35:25.605Z,61.90
2017-05-18T19:37:54.754Z,62.10
2017-05-18T19:40:22.230Z,63.10
2017-05-18T19:42:49.702Z,62.90
2017-05-18T19:45:17.053Z,62.40
2017-05-18T19:47:44.282Z,62.70
2017-05-18T19:50:11.728Z,63.20
2017-05-18T19:52:39.165Z,62.90
2017-05-18T19:55:06.533Z,62.80
2017-05-18T19:57:33.885Z,62.40
2017-05-18T20:00:01.287Z,62.60
2017-05-18T20:02:28.675Z,62.70
2017-05-18T20:04:55.998Z,63.00
2017-05-18T20:07:23.322Z,63.10
2017-05-18T20:09:50.753Z,63.20
2017-05-18T20:12:18.118Z,62.90
2017-05-18T20:14:45.523Z,63.20
2017-05-18T20:17:12.962Z,63.70
2017-05-18T20:19:40.607Z,63.60
2017-05-18T20:22:08.413Z,63.20
2017-05-18T20:24:35.762Z,62.50
2017-05-18T20:27:03.138Z,63.00
2017-05-18T20:29:30.474Z,63.70
2017-05-18T20:31:57.834Z,63.40
2017-05-18T20:34:25.256Z,63.70
2017-05-18T20:36:52.630Z,63.50
2017-05-18T20:39:19.970Z,63.60
2017-05-18T20:41:47.309Z,63.90
2017-05-18T20:44:14.690Z,63.60
2017-05-18T20:46:42.058Z,63.30
2017-05-18T20:49:09.409Z,62.90
2017-05-18T20:51:36.791Z,62.20
2017-05-18T20:54:04.143Z,62.70
2017-05-18T20:56:35.845Z,63.30
2017-05-18T20:59:03.282Z,63.40
2017-05-18T21:01:30.642Z,63.20
2017-05-18T21:03:58.859Z,63.20
2017-05-18T21:06:26.245Z,63.40
2017-05-18T21:08:53.577Z,63.60
2017-05-18T21:11:20.902Z,63.90
2017-05-18T21:13:48.305Z,63.40
2017-05-18T21:16:15.774Z,63.70
2017-05-18T21:18:43.113Z,63.80
2017-05-18T21:21:10.482Z,63.60
2017-05-18T21:23:37.832Z,64.50
2017-05-18T21:26:05.161Z,64.30
2017-05-18T21:28:32.502Z,64.70
2017-05-18T21:30:59.854Z,64.60
2017-05-18T21:33:27.169Z,64.90
2017-05-18T21:35:54.509Z,64.80
2017-05-18T21:38:21.816Z,64.80
2017-05-18T21:40:49.170Z,65.10
2017-05-18T21:43:16.525Z,64.90
2017-05-18T21:45:43.879Z,64.70
2017-05-18T21:48:11.213Z,64.90
2017-05-18T21:50:38.657Z,64.40
2017-05-18T21:53:05.986Z,64.60
2017-05-18T21:55:33.330Z,65.10
2017-05-18T21:58:00.677Z,65.00
2017-05-18T22:00:28.094Z,65.20
2017-05-18T22:02:55.418Z,64.80
2017-05-18T22:05:22.785Z,65.10
2017-05-18T22:07:50.150Z,65.10
2017-05-18T22:10:17.490Z,64.40
2017-05-18T22:12:44.817Z,64.80
2017-05-18T22:15:12.190Z,65.10
2017-05-18T22:17:39.406Z,64.90
2017-05-18T22:20:06.744Z,64.20
2017-05-18T22:22:34.046Z,63.50
2017-05-18T22:25:01.403Z,63.60
2017-05-18T22:27:28.778Z,63.80
2017-05-18T22:29:56.074Z,64.40
2017-05-18T22:32:26.721Z,64.50
2017-05-18T22:34:54.110Z,65.10
2017-05-18T22:37:21.441Z,64.00
2017-05-18T22:39:48.762Z,63.90
2017-05-18T22:42:16.087Z,64.20
2017-05-18T22:44:43.431Z,64.30
2017-05-18T22:47:10.937Z,64.00
2017-05-18T22:49:38.316Z,63.40
2017-05-18T22:52:05.658Z,64.20
2017-05-18T22:54:33.035Z,64.40
2017-05-18T22:57:00.381Z,62.90
2017-05-18T22:59:27.709Z,63.20
2017-05-18T23:01:55.121Z,63.40
2017-05-18T23:04:22.463Z,64.50
2017-05-18T23:06:49.866Z,64.40
2017-05-18T23:09:17.225Z,64.40
2017-05-18T23:11:44.440Z,64.40
2017-05-18T23:14:11.802Z,64.60
2017-05-18T23:16:39.196Z,64.00
2017-05-18T23:19:06.570Z,64.30
2017-05-18T23:21:33.922Z,64.00
2017-05-18T23:24:01.251Z,63.80
2017-05-18T23:26:28.558Z,64.40
2017-05-18T23:28:55.886Z,65.20
2017-05-18T23:31:23.254Z,65.40
2017-05-18T23:33:50.593Z,64.00
2017-05-18T23:36:17.953Z,64.00
2017-05-18T23:38:45.313Z,64.30
2017-05-18T23:41:12.685Z,65.20
2017-05-18T23:43:40.005Z,65.30
2017-05-18T23:46:07.366Z,65.60
2017-05-18T23:48:34.651Z,65.00
2017-05-18T23:51:02.083Z,63.90
2017-05-18T23:53:29.426Z,65.20
2017-05-18T23:55:56.641Z,65.20
2017-05-18T23:58:23.962Z,64.60
